createdAt,value
2022-09-01T00:00:05.726Z,82.76
2022-09-01T00:01:05.712Z,83.43
2022-09-01T00:02:05.737Z,83.53
2022-09-01T00:03:05.685Z,83.53
2022-09-01T00:04:05.734Z,83.34
2022-09-01T00:05:05.652Z,83.72
2022-09-01T00:06:05.638Z,83.53
2022-09-01T00:07:05.624Z,83.53
2022-09-01T00:08:05.605Z,83.24
2022-09-01T00:09:05.595Z,83.24
2022-09-01T00:10:05.578Z,83.14
2022-09-01T00:11:05.563Z,83.24
2022-09-01T00:12:05.548Z,83.43
2022-09-01T00:13:05.531Z,83.34
2022-09-01T00:14:05.518Z,83.91
2022-09-01T00:15:05.503Z,83.72
2022-09-01T00:16:05.537Z,83.72
2022-09-01T00:17:05.473Z,83.62
2022-09-01T00:18:05.462Z,83.72
2022-09-01T00:19:05.446Z,83.81
2022-09-01T00:20:05.427Z,84.00
2022-09-01T00:21:05.413Z,84.00
2022-09-01T00:22:05.403Z,83.91
2022-09-01T00:23:05.384Z,84.10
2022-09-01T00:24:05.369Z,84.20
2022-09-01T00:25:05.572Z,84.20
2022-09-01T00:26:05.341Z,84.29
2022-09-01T00:27:05.331Z,83.91
2022-09-01T00:28:05.317Z,84.10
2022-09-01T00:29:05.294Z,84.48
2022-09-01T00:30:05.277Z,84.20
2022-09-01T00:31:05.338Z,84.20
2022-09-01T00:32:05.248Z,84.10
2022-09-01T00:33:05.236Z,84.29
2022-09-01T00:34:05.220Z,84.96
2022-09-01T00:35:05.214Z,84.67
2022-09-01T00:36:05.187Z,84.48
2022-09-01T00:37:05.178Z,84.39
2022-09-01T00:38:05.162Z,84.86
2022-09-01T00:39:05.145Z,85.01
2022-09-01T00:40:05.130Z,84.92
2022-09-01T00:41:05.113Z,84.44
2022-09-01T00:42:05.101Z,85.39
2022-09-01T00:43:05.086Z,85.11
2022-09-01T00:44:05.072Z,85.21
2022-09-01T00:45:05.055Z,85.30
2022-09-01T00:46:05.091Z,85.49
2022-09-01T00:47:05.024Z,85.39
2022-09-01T00:48:05.009Z,85.39
2022-09-01T00:49:04.995Z,85.30
2022-09-01T00:50:04.978Z,85.68
2022-09-01T00:51:04.965Z,85.49
2022-09-01T00:52:04.951Z,85.87
2022-09-01T00:53:04.934Z,85.68
2022-09-01T00:54:04.925Z,86.35
2022-09-01T00:55:04.906Z,86.06
2022-09-01T00:56:04.888Z,85.68
2022-09-01T00:57:04.873Z,86.35
2022-09-01T00:58:04.856Z,86.73
2022-09-01T00:59:04.844Z,86.54
2022-09-01T01:00:04.827Z,86.73
2022-09-01T01:01:04.888Z,86.63
2022-09-01T01:02:04.827Z,86.63
2022-09-01T01:03:04.783Z,86.98
2022-09-01T01:04:04.768Z,87.02
2022-09-01T01:05:04.753Z,86.73
2022-09-01T01:06:04.737Z,87.07
2022-09-01T01:07:04.723Z,87.26
2022-09-01T01:08:04.707Z,87.11
2022-09-01T01:09:04.692Z,87.54
2022-09-01T01:10:04.678Z,87.64
2022-09-01T01:11:04.663Z,87.64
2022-09-01T01:12:04.644Z,87.54
2022-09-01T01:13:04.635Z,88.02
2022-09-01T01:14:04.617Z,87.64
2022-09-01T01:15:04.601Z,87.74
2022-09-01T01:16:04.587Z,87.64
2022-09-01T01:17:04.640Z,88.21
2022-09-01T01:18:04.555Z,88.21
2022-09-01T01:19:04.542Z,88.12
2022-09-01T01:20:04.524Z,88.78
2022-09-01T01:21:04.509Z,88.78
2022-09-01T01:22:04.491Z,88.69
2022-09-01T01:23:04.477Z,88.98
2022-09-01T01:24:04.462Z,88.69
2022-09-01T01:25:04.449Z,89.17
2022-09-01T01:26:04.433Z,89.07
2022-09-01T01:27:04.419Z,88.88
2022-09-01T01:28:04.400Z,88.98
2022-09-01T01:29:04.384Z,89.45
2022-09-01T01:30:04.372Z,89.07
2022-09-01T01:31:04.392Z,89.07
2022-09-01T01:32:04.336Z,89.17
2022-09-01T01:33:04.325Z,88.98
2022-09-01T01:34:04.307Z,89.17
2022-09-01T01:35:04.295Z,88.98
2022-09-01T01:36:04.275Z,89.26
2022-09-01T01:37:04.263Z,89.07
2022-09-01T01:38:04.244Z,89.36
2022-09-01T01:39:04.232Z,90.03
2022-09-01T01:40:04.327Z,89.83
2022-09-01T01:41:04.199Z,89.83
2022-09-01T01:42:04.183Z,90.12
2022-09-01T01:43:04.171Z,90.12
2022-09-01T01:44:04.153Z,89.93
2022-09-01T01:45:04.140Z,89.64
2022-09-01T01:46:04.167Z,89.64
2022-09-01T01:47:04.108Z,89.93
2022-09-01T01:48:04.090Z,90.12
2022-09-01T01:49:04.077Z,89.93
2022-09-01T01:50:04.061Z,89.93
2022-09-01T01:51:04.046Z,90.03
2022-09-01T01:52:04.028Z,90.12
2022-09-01T01:53:04.013Z,89.93
2022-09-01T01:54:03.999Z,89.93
2022-09-01T01:55:05.335Z,90.50
2022-09-01T01:56:03.966Z,90.12
2022-09-01T01:57:03.951Z,89.93
2022-09-01T01:58:03.935Z,89.93
2022-09-01T01:59:03.920Z,90.12
2022-09-01T02:00:03.907Z,90.31
2022-09-01T02:01:03.980Z,90.41
2022-09-01T02:02:04.161Z,90.31
2022-09-01T02:03:03.862Z,90.41
2022-09-01T02:04:03.845Z,90.50
2022-09-01T02:05:03.830Z,90.41
2022-09-01T02:06:03.815Z,90.41
2022-09-01T02:07:03.799Z,90.22
2022-09-01T02:08:03.782Z,90.31
2022-09-01T02:09:03.767Z,90.22
2022-09-01T02:10:03.750Z,90.79
2022-09-01T02:11:03.741Z,90.50
2022-09-01T02:12:03.723Z,90.69
2022-09-01T02:13:03.707Z,90.98
2022-09-01T02:14:03.692Z,90.79
2022-09-01T02:15:03.675Z,90.98
2022-09-01T02:16:03.659Z,90.88
2022-09-01T02:17:03.751Z,90.79
2022-09-01T02:18:05.180Z,91.55
2022-09-01T02:19:03.611Z,91.55
2022-09-01T02:20:03.600Z,91.36
2022-09-01T02:21:03.582Z,91.36
2022-09-01T02:22:03.571Z,91.46
2022-09-01T02:23:03.550Z,91.46
2022-09-01T02:24:03.542Z,91.55
2022-09-01T02:25:03.518Z,91.83
2022-09-01T02:26:16.227Z,91.27
2022-09-01T02:27:03.491Z,91.46
2022-09-01T02:28:03.480Z,91.36
2022-09-01T02:29:03.459Z,91.31
2022-09-01T02:30:03.442Z,91.36
2022-09-01T02:31:03.459Z,91.41
2022-09-01T02:32:03.411Z,91.79
2022-09-01T02:33:03.416Z,91.79
2022-09-01T02:34:03.379Z,91.69
2022-09-01T02:35:03.365Z,91.98
2022-09-01T02:36:03.350Z,91.88
2022-09-01T02:37:03.334Z,91.79
2022-09-01T02:38:03.316Z,92.36
2022-09-01T02:39:03.299Z,92.36
2022-09-01T02:40:03.323Z,92.27
2022-09-01T02:41:03.272Z,92.65
2022-09-01T02:42:03.257Z,93.12
2022-09-01T02:43:03.239Z,92.55
2022-09-01T02:44:03.222Z,92.74
2022-09-01T02:45:03.210Z,92.46
2022-09-01T02:46:03.251Z,92.36
2022-09-01T02:47:03.174Z,93.22
2022-09-01T02:48:03.160Z,93.22
2022-09-01T02:49:03.142Z,93.22
2022-09-01T02:50:03.144Z,93.12
2022-09-01T02:51:03.114Z,93.22
2022-09-01T02:52:03.098Z,93.22
2022-09-01T02:53:04.015Z,93.60
2022-09-01T02:54:03.069Z,93.22
2022-09-01T02:55:03.051Z,93.41
2022-09-01T02:56:03.036Z,93.32
2022-09-01T02:57:03.019Z,93.03
2022-09-01T02:58:03.003Z,93.32
2022-09-01T02:59:02.986Z,92.93
2022-09-01T03:00:02.972Z,93.03
2022-09-01T03:01:03.041Z,93.41
2022-09-01T03:02:02.943Z,93.03
2022-09-01T03:03:02.923Z,93.12
2022-09-01T03:04:02.907Z,93.17
2022-09-01T03:05:03.025Z,93.51
2022-09-01T03:06:02.876Z,93.88
2022-09-01T03:07:02.860Z,92.84
2022-09-01T03:08:02.844Z,94.08
2022-09-01T03:09:02.828Z,93.84
2022-09-01T03:10:02.813Z,93.65
2022-09-01T03:11:02.809Z,93.37
2022-09-01T03:12:02.782Z,93.65
2022-09-01T03:13:02.785Z,93.65
2022-09-01T03:14:02.750Z,93.65
2022-09-01T03:15:02.734Z,93.37
2022-09-01T03:16:02.730Z,93.46
2022-09-01T03:17:02.785Z,93.93
2022-09-01T03:18:02.688Z,93.65
2022-09-01T03:19:02.670Z,93.93
2022-09-01T03:20:02.656Z,94.51
2022-09-01T03:21:02.641Z,94.32
2022-09-01T03:22:02.626Z,94.03
2022-09-01T03:23:02.611Z,94.79
2022-09-01T03:24:02.592Z,94.32
2022-09-01T03:25:02.575Z,94.51
2022-09-01T03:26:02.562Z,94.32
2022-09-01T03:27:02.547Z,94.70
2022-09-01T03:28:03.140Z,94.79
2022-09-01T03:29:02.514Z,94.89
2022-09-01T03:30:02.500Z,94.51
2022-09-01T03:31:02.477Z,94.79
2022-09-01T03:32:02.545Z,94.70
2022-09-01T03:33:02.447Z,94.84
2022-09-01T03:34:02.595Z,95.36
2022-09-01T03:35:02.415Z,95.60
2022-09-01T03:36:02.404Z,95.27
2022-09-01T03:37:02.383Z,95.27
2022-09-01T03:38:02.371Z,94.93
2022-09-01T03:39:02.356Z,95.51
2022-09-01T03:40:02.375Z,95.03
2022-09-01T03:41:02.388Z,95.32
2022-09-01T03:42:02.304Z,95.89
2022-09-01T03:43:02.289Z,95.60
2022-09-01T03:44:02.271Z,95.51
2022-09-01T03:45:02.256Z,95.60
2022-09-01T03:46:02.344Z,95.32
2022-09-01T03:47:02.251Z,95.51
2022-09-01T03:48:02.221Z,95.79
2022-09-01T03:49:02.191Z,95.89
2022-09-01T03:50:02.176Z,95.60
2022-09-01T03:51:02.158Z,95.79
2022-09-01T03:52:02.146Z,95.70
2022-09-01T03:53:02.127Z,96.36
2022-09-01T03:54:02.114Z,96.17
2022-09-01T03:55:02.096Z,96.46
2022-09-01T03:56:02.152Z,96.17
2022-09-01T03:57:02.060Z,96.46
2022-09-01T03:58:02.046Z,96.27
2022-09-01T03:59:02.028Z,96.27
2022-09-01T04:00:02.016Z,96.27
2022-09-01T04:01:02.112Z,96.08
2022-09-01T04:02:02.030Z,96.94
2022-09-01T04:03:01.966Z,96.55
2022-09-01T04:04:01.955Z,96.46
2022-09-01T04:05:04.372Z,96.65
2022-09-01T04:06:01.917Z,96.65
2022-09-01T04:07:01.902Z,96.36
2022-09-01T04:08:01.912Z,96.65
2022-09-01T04:09:01.868Z,96.94
2022-09-01T04:10:01.857Z,97.31
2022-09-01T04:11:01.836Z,97.22
2022-09-01T04:12:01.822Z,97.41
2022-09-01T04:13:01.817Z,97.13
2022-09-01T04:14:01.790Z,97.51
2022-09-01T04:15:01.773Z,97.41
2022-09-01T04:16:01.805Z,97.22
2022-09-01T04:17:01.746Z,97.13
2022-09-01T04:18:01.725Z,97.13
2022-09-01T04:19:01.707Z,97.31
2022-09-01T04:20:01.690Z,97.60
2022-09-01T04:21:01.677Z,97.41
2022-09-01T04:22:01.659Z,97.13
2022-09-01T04:23:01.646Z,97.31
2022-09-01T04:24:01.624Z,97.51
2022-09-01T04:25:01.608Z,97.31
2022-09-01T04:26:01.594Z,97.13
2022-09-01T04:27:01.582Z,97.51
2022-09-01T04:28:01.561Z,97.51
2022-09-01T04:29:01.544Z,97.22
2022-09-01T04:30:01.548Z,97.22
2022-09-01T04:31:01.516Z,97.22
2022-09-01T04:32:01.593Z,97.13
2022-09-01T04:33:01.476Z,97.60
2022-09-01T04:34:01.463Z,97.22
2022-09-01T04:35:01.449Z,98.18
2022-09-01T04:36:01.430Z,97.99
2022-09-01T04:37:01.413Z,98.08
2022-09-01T04:38:01.400Z,98.27
2022-09-01T04:39:01.381Z,98.08
2022-09-01T04:40:01.460Z,97.79
2022-09-01T04:41:01.348Z,97.89
2022-09-01T04:42:01.336Z,98.55
2022-09-01T04:43:01.321Z,97.79
2022-09-01T04:44:01.301Z,98.46
2022-09-01T04:45:01.960Z,98.55
2022-09-01T04:46:01.333Z,98.55
2022-09-01T04:47:01.253Z,98.65
2022-09-01T04:48:01.238Z,98.18
2022-09-01T04:49:01.325Z,98.27
2022-09-01T04:50:01.214Z,99.22
2022-09-01T04:51:01.225Z,98.84
2022-09-01T04:52:01.243Z,99.03
2022-09-01T04:53:01.159Z,98.94
2022-09-01T04:54:01.138Z,98.94
2022-09-01T04:55:01.120Z,98.36
2022-09-01T04:56:01.105Z,99.32
2022-09-01T04:57:01.088Z,99.13
2022-09-01T04:58:01.072Z,98.74
2022-09-01T04:59:01.070Z,98.65
2022-09-01T05:00:01.044Z,98.84
2022-09-01T05:01:01.043Z,98.99
2022-09-01T05:02:01.040Z,98.79
2022-09-01T05:03:00.992Z,98.99
2022-09-01T05:04:00.978Z,98.32
2022-09-01T05:05:00.957Z,98.60
2022-09-01T05:06:00.942Z,98.41
2022-09-01T05:07:00.966Z,98.51
2022-09-01T05:08:00.909Z,98.51
2022-09-01T05:09:00.893Z,99.18
2022-09-01T05:10:01.564Z,99.18
2022-09-01T05:11:00.987Z,99.22
2022-09-01T05:12:00.843Z,99.32
2022-09-01T05:13:00.828Z,98.36
2022-09-01T05:14:00.824Z,98.46
2022-09-01T05:15:00.798Z,98.65
2022-09-01T05:16:00.804Z,98.36
2022-09-01T05:17:00.766Z,98.46
2022-09-01T05:18:00.750Z,98.56
2022-09-01T05:19:00.750Z,98.36
2022-09-01T05:20:00.722Z,98.46
2022-09-01T05:21:00.700Z,98.36
2022-09-01T05:22:00.687Z,99.22
2022-09-01T05:23:00.676Z,98.18
2022-09-01T05:24:00.658Z,99.41
2022-09-01T05:25:00.729Z,99.46
2022-09-01T05:26:00.623Z,99.08
2022-09-01T05:27:00.634Z,99.08
2022-09-01T05:28:00.591Z,98.80
2022-09-01T05:29:00.578Z,98.42
2022-09-01T05:30:00.560Z,98.51
2022-09-01T05:31:00.597Z,98.42
2022-09-01T05:32:00.529Z,98.70
2022-09-01T05:33:00.510Z,98.70
2022-09-01T05:34:00.520Z,98.61
2022-09-01T05:35:00.482Z,98.90
2022-09-01T05:36:00.464Z,98.47
2022-09-01T05:37:00.453Z,98.66
2022-09-01T05:38:00.438Z,98.56
2022-09-01T05:39:00.416Z,98.75
2022-09-01T05:40:00.402Z,98.75
2022-09-01T05:41:00.388Z,98.85
2022-09-01T05:42:00.377Z,97.99
2022-09-01T05:43:00.356Z,98.08
2022-09-01T05:44:01.060Z,98.37
2022-09-01T05:45:00.336Z,98.27
2022-09-01T05:46:06.699Z,98.32
2022-09-01T05:47:00.370Z,98.03
2022-09-01T05:48:00.278Z,98.52
2022-09-01T05:49:00.270Z,98.52
2022-09-01T05:50:00.249Z,97.66
2022-09-01T05:51:00.232Z,97.94
2022-09-01T05:52:00.219Z,97.85
2022-09-01T05:53:00.202Z,98.03
2022-09-01T05:54:00.274Z,98.23
2022-09-01T05:55:00.212Z,98.23
2022-09-01T05:56:00.158Z,98.13
2022-09-01T05:57:17.472Z,98.42
2022-09-01T05:58:00.130Z,98.28
2022-09-01T06:00:00.096Z,97.61
2022-09-01T06:01:00.086Z,97.61
2022-09-01T06:02:00.314Z,97.80
2022-09-01T06:03:00.317Z,97.89
2022-09-01T06:04:00.064Z,97.89
2022-09-01T06:05:09.032Z,97.71
2022-09-01T06:07:07.901Z,97.18
2022-09-01T06:08:05.504Z,97.28
2022-09-01T06:10:11.387Z,96.99
2022-09-01T06:11:11.285Z,96.03
2022-09-01T06:13:17.060Z,96.18
2022-09-01T06:14:16.412Z,95.61
2022-09-01T06:16:11.211Z,95.12
2022-09-01T06:17:11.063Z,95.61
2022-09-01T06:19:16.567Z,95.12
2022-09-01T06:20:16.556Z,94.26
2022-09-01T06:22:21.822Z,93.98
2022-09-01T06:23:22.319Z,94.21
2022-09-01T06:25:27.554Z,93.26
2022-09-01T06:26:27.602Z,94.02
2022-09-01T06:28:34.251Z,93.26
2022-09-01T06:29:34.424Z,92.88
2022-09-01T06:31:40.096Z,93.02
2022-09-01T06:32:39.940Z,91.87
2022-09-01T06:33:39.993Z,91.49
2022-09-01T06:34:39.936Z,92.16
2022-09-01T06:35:39.927Z,91.97
2022-09-01T06:36:39.528Z,92.06
2022-09-01T06:37:39.535Z,91.05
2022-09-01T06:38:39.513Z,91.72
2022-09-01T06:39:39.521Z,90.67
2022-09-01T06:40:39.940Z,90.86
2022-09-01T06:41:39.824Z,90.29
2022-09-01T06:42:39.445Z,90.00
2022-09-01T06:43:39.432Z,90.29
2022-09-01T06:44:40.980Z,89.57
2022-09-01T06:45:39.401Z,89.47
2022-09-01T06:46:39.507Z,88.99
2022-09-01T06:47:39.372Z,89.28
2022-09-01T06:48:39.374Z,88.90
2022-09-01T06:49:39.348Z,88.37
2022-09-01T06:51:39.320Z,87.60
2022-09-01T06:53:39.297Z,87.88
2022-09-01T06:54:39.305Z,87.41
2022-09-01T06:55:39.263Z,87.31
2022-09-01T06:56:44.801Z,86.93
2022-09-01T06:58:39.228Z,86.45
2022-09-01T06:59:39.209Z,86.74
2022-09-01T07:00:39.198Z,86.11
2022-09-01T07:02:39.183Z,85.92
2022-09-01T07:03:39.158Z,85.34
2022-09-01T07:04:39.143Z,84.95
2022-09-01T07:09:18.966Z,83.18
2022-09-01T07:09:50.108Z,83.56
2022-09-01T07:11:19.465Z,82.89
2022-09-01T07:12:39.044Z,82.79
2022-09-01T07:13:39.705Z,82.41
2022-09-01T07:16:30.212Z,82.31
2022-09-01T07:16:40.307Z,81.64
2022-09-01T07:17:38.972Z,81.16
2022-09-01T07:18:38.964Z,81.10
2022-09-01T07:19:54.315Z,81.20
2022-09-01T07:21:02.801Z,81.30
2022-09-01T07:21:42.010Z,80.91
2022-09-01T07:23:03.643Z,80.82
2022-09-01T07:24:38.884Z,80.66
2022-09-01T07:26:46.797Z,80.32
2022-09-01T07:28:38.846Z,79.65
2022-09-01T07:29:38.822Z,78.78
2022-09-01T07:30:40.698Z,78.63
2022-09-01T07:32:44.067Z,78.63
2022-09-01T07:33:41.981Z,77.86
2022-09-01T07:34:39.510Z,77.61
2022-09-01T07:35:39.361Z,76.84
2022-09-01T07:37:16.126Z,76.17
2022-09-01T07:39:55.319Z,75.63
2022-09-01T07:42:30.980Z,85.92
2022-09-01T07:42:31.866Z,83.85
2022-09-01T07:43:38.660Z,74.09
2022-09-01T07:44:38.639Z,73.51
2022-09-01T07:45:47.237Z,73.61
2022-09-01T07:46:38.821Z,73.61
2022-09-01T07:47:54.382Z,73.71
2022-09-01T07:50:11.536Z,73.03
2022-09-01T07:51:33.985Z,72.74
2022-09-01T07:51:38.695Z,72.45
2022-09-01T07:52:38.556Z,72.30
2022-09-01T07:53:38.533Z,71.59
2022-09-01T07:54:38.527Z,71.34
2022-09-01T07:55:38.512Z,71.43
2022-09-01T07:56:40.395Z,71.53
2022-09-01T07:57:38.489Z,70.86
2022-09-01T07:58:38.485Z,70.37
2022-09-01T07:59:38.467Z,70.37
2022-09-01T08:00:38.457Z,70.02
2022-09-01T08:01:38.476Z,70.31
2022-09-01T08:02:38.513Z,69.93
2022-09-01T08:03:38.423Z,69.67
2022-09-01T08:04:38.412Z,69.19
2022-09-01T08:05:38.404Z,68.32
2022-09-01T08:06:38.500Z,68.42
2022-09-01T08:07:51.600Z,68.13
2022-09-01T08:08:38.617Z,67.94
2022-09-01T08:09:43.841Z,67.68
2022-09-01T08:10:38.349Z,67.68
2022-09-01T08:12:03.094Z,67.40
2022-09-01T08:12:38.325Z,66.33
2022-09-01T08:13:41.703Z,65.56
2022-09-01T08:14:38.375Z,64.59
2022-09-01T08:15:41.055Z,64.24
2022-09-01T08:16:40.069Z,63.82
2022-09-01T08:17:53.738Z,62.96
2022-09-01T08:18:52.838Z,62.57
2022-09-01T08:19:38.268Z,62.57
2022-09-01T08:20:38.250Z,62.76
2022-09-01T08:21:38.247Z,63.06
2022-09-01T08:22:38.226Z,62.66
2022-09-01T08:23:38.213Z,63.15
2022-09-01T08:24:38.202Z,62.76
2022-09-01T08:25:38.191Z,62.76
2022-09-01T08:26:38.183Z,63.47
2022-09-01T08:27:38.170Z,63.18
2022-09-01T08:28:38.179Z,62.99
2022-09-01T08:29:38.152Z,62.89
2022-09-01T08:30:38.144Z,61.93
2022-09-01T08:31:38.177Z,61.77
2022-09-01T08:32:38.120Z,61.67
2022-09-01T08:33:38.110Z,60.71
2022-09-01T08:34:38.111Z,60.89
2022-09-01T08:35:38.096Z,60.61
2022-09-01T08:36:38.079Z,59.67
2022-09-01T08:37:38.078Z,59.86
2022-09-01T08:38:38.077Z,59.86
2022-09-01T08:39:38.054Z,59.38
2022-09-01T08:40:38.075Z,59.19
2022-09-01T08:41:38.041Z,59.48
2022-09-01T08:42:38.025Z,59.58
2022-09-01T08:43:38.054Z,59.67
2022-09-01T08:44:38.007Z,59.28
2022-09-01T08:45:38.011Z,59.19
2022-09-01T08:46:38.082Z,58.73
2022-09-01T08:47:55.973Z,58.32
2022-09-01T08:49:23.587Z,57.93
2022-09-01T08:49:45.106Z,57.74
2022-09-01T08:50:37.945Z,58.25
2022-09-01T08:51:37.942Z,58.25
2022-09-01T08:52:37.934Z,58.35
2022-09-01T08:53:37.917Z,58.35
2022-09-01T08:54:37.909Z,58.35
2022-09-01T08:55:37.905Z,58.06
2022-09-01T08:56:37.889Z,57.87
2022-09-01T08:57:37.881Z,57.79
2022-09-01T08:58:37.872Z,57.89
2022-09-01T08:59:38.983Z,57.12
2022-09-01T09:00:37.863Z,56.54
2022-09-01T09:01:37.905Z,56.83
2022-09-01T09:02:37.879Z,56.73
2022-09-01T09:03:41.131Z,56.73
2022-09-01T09:04:37.845Z,55.38
2022-09-01T09:05:37.807Z,55.67
2022-09-01T09:06:37.801Z,56.35
2022-09-01T09:07:37.815Z,56.71
2022-09-01T09:08:37.781Z,56.71
2022-09-01T09:09:37.773Z,56.73
2022-09-01T09:10:37.771Z,57.12
2022-09-01T09:11:38.065Z,57.21
2022-09-01T09:12:48.994Z,56.73
2022-09-01T09:13:37.764Z,56.83
2022-09-01T09:14:37.742Z,56.15
2022-09-01T09:15:37.769Z,55.47
2022-09-01T09:16:37.715Z,55.77
2022-09-01T09:17:37.699Z,55.67
2022-09-01T09:18:39.117Z,55.67
2022-09-01T09:19:37.679Z,55.87
2022-09-01T09:20:38.383Z,54.83
2022-09-01T09:21:37.673Z,54.25
2022-09-01T09:22:37.654Z,53.96
2022-09-01T09:23:37.645Z,54.05
2022-09-01T09:24:39.292Z,54.13
2022-09-01T09:25:37.633Z,54.05
2022-09-01T09:26:44.913Z,53.67
2022-09-01T09:27:37.614Z,53.38
2022-09-01T09:28:37.598Z,52.89
2022-09-01T09:29:37.596Z,53.47
2022-09-01T09:30:38.522Z,53.86
2022-09-01T09:31:37.771Z,54.05
2022-09-01T09:33:06.504Z,53.67
2022-09-01T09:33:48.550Z,53.09
2022-09-01T09:34:37.546Z,52.22
2022-09-01T09:35:37.544Z,52.14
2022-09-01T09:36:37.531Z,52.82
2022-09-01T09:37:37.525Z,52.24
2022-09-01T09:38:37.509Z,51.66
2022-09-01T09:39:37.508Z,51.66
2022-09-01T09:41:06.722Z,52.24
2022-09-01T09:41:37.535Z,52.24
2022-09-01T09:42:37.536Z,52.12
2022-09-01T09:43:37.482Z,52.12
2022-09-01T09:44:37.458Z,52.02
2022-09-01T09:45:37.985Z,52.22
2022-09-01T09:46:37.471Z,52.22
2022-09-01T09:47:45.208Z,52.02
2022-09-01T09:48:37.437Z,52.12
2022-09-01T09:49:43.175Z,52.02
2022-09-01T09:50:38.118Z,52.24
2022-09-01T09:51:37.467Z,52.53
2022-09-01T09:52:38.012Z,51.37
2022-09-01T09:53:37.384Z,50.79
2022-09-01T09:54:37.375Z,50.21
2022-09-01T09:55:37.365Z,50.79
2022-09-01T09:56:37.351Z,50.70
2022-09-01T09:57:37.359Z,50.31
2022-09-01T09:58:37.338Z,50.82
2022-09-01T09:59:57.201Z,50.82
2022-09-01T10:00:37.319Z,50.24
2022-09-01T10:01:37.359Z,49.85
2022-09-01T10:02:37.299Z,49.27
2022-09-01T10:03:37.358Z,49.56
2022-09-01T10:04:37.281Z,49.37
2022-09-01T10:05:37.277Z,49.10
2022-09-01T10:06:37.271Z,49.19
2022-09-01T10:07:37.260Z,48.71
2022-09-01T10:08:37.258Z,49.17
2022-09-01T10:09:37.241Z,49.49
2022-09-01T10:10:37.234Z,48.61
2022-09-01T10:11:41.446Z,48.11
2022-09-01T10:12:37.235Z,47.81
2022-09-01T10:13:37.208Z,48.11
2022-09-01T10:14:51.712Z,48.03
2022-09-01T10:15:37.193Z,47.52
2022-09-01T10:16:37.194Z,48.01
2022-09-01T10:17:37.174Z,48.03
2022-09-01T10:18:37.339Z,47.45
2022-09-01T10:19:37.171Z,47.55
2022-09-01T10:20:37.155Z,47.16
2022-09-01T10:21:37.149Z,46.39
2022-09-01T10:22:37.132Z,46.48
2022-09-01T10:23:37.123Z,46.48
2022-09-01T10:24:38.795Z,46.48
2022-09-01T10:25:37.111Z,46.48
2022-09-01T10:26:37.421Z,46.09
2022-09-01T10:27:37.101Z,46.29
2022-09-01T10:28:37.092Z,46.70
2022-09-01T10:29:47.433Z,45.83
2022-09-01T10:30:37.099Z,45.17
2022-09-01T10:31:37.069Z,44.98
2022-09-01T10:32:38.627Z,45.00
2022-09-01T10:33:37.235Z,45.10
2022-09-01T10:34:37.075Z,45.21
2022-09-01T10:35:39.723Z,43.68
2022-09-01T10:36:37.815Z,42.83
2022-09-01T10:37:37.017Z,42.46
2022-09-01T10:38:37.008Z,42.08
2022-09-01T10:39:42.994Z,42.46
2022-09-01T10:40:38.197Z,42.08
2022-09-01T10:41:36.993Z,42.08
2022-09-01T10:42:36.990Z,42.27
2022-09-01T10:43:37.545Z,42.44
2022-09-01T10:44:36.987Z,42.43
2022-09-01T10:45:38.214Z,42.91
2022-09-01T10:46:39.271Z,43.10
2022-09-01T10:47:36.966Z,43.20
2022-09-01T10:48:48.808Z,43.12
2022-09-01T10:49:36.929Z,42.91
2022-09-01T10:50:36.924Z,43.41
2022-09-01T10:51:39.613Z,43.51
2022-09-01T10:52:37.206Z,42.64
2022-09-01T10:53:36.911Z,42.15
2022-09-01T10:54:38.655Z,40.69
2022-09-01T10:55:36.892Z,40.79
2022-09-01T10:56:37.024Z,41.16
2022-09-01T10:57:42.298Z,40.60
2022-09-01T10:59:41.745Z,39.61
2022-09-01T11:00:37.223Z,40.00
2022-09-01T11:01:47.865Z,41.26
2022-09-01T11:02:46.361Z,40.85
2022-09-01T11:03:47.783Z,40.08
2022-09-01T11:04:36.909Z,40.08
2022-09-01T11:05:36.881Z,40.46
2022-09-01T11:06:36.907Z,40.56
2022-09-01T11:08:01.453Z,40.95
2022-09-01T11:08:36.840Z,40.77
2022-09-01T11:09:36.822Z,40.09
2022-09-01T11:10:36.824Z,40.29
2022-09-01T11:11:36.776Z,40.41
2022-09-01T11:12:36.779Z,40.62
2022-09-01T11:13:36.777Z,40.15
2022-09-01T11:14:36.756Z,39.29
2022-09-01T11:15:36.757Z,38.75
2022-09-01T11:16:52.112Z,38.09
2022-09-01T11:17:36.872Z,37.83
2022-09-01T11:18:36.739Z,36.88
2022-09-01T11:19:36.728Z,36.62
2022-09-01T11:20:36.855Z,35.46
2022-09-01T11:21:38.252Z,35.11
2022-09-01T11:22:38.079Z,34.62
2022-09-01T11:23:36.705Z,34.65
2022-09-01T11:24:37.845Z,33.69
2022-09-01T11:25:40.198Z,32.34
2022-09-01T11:26:36.700Z,32.64
2022-09-01T11:27:36.690Z,30.30
2022-09-01T11:28:36.684Z,30.11
2022-09-01T11:29:36.690Z,29.05
2022-09-01T11:30:36.684Z,29.24
2022-09-01T11:31:36.730Z,28.93
2022-09-01T11:32:36.673Z,28.15
2022-09-01T11:33:36.672Z,28.25
2022-09-01T11:34:36.686Z,28.72
2022-09-01T11:35:36.666Z,28.31
2022-09-01T11:36:36.668Z,28.79
2022-09-01T11:37:36.657Z,30.05
2022-09-01T11:38:36.672Z,30.23
2022-09-01T11:39:36.671Z,29.83
2022-09-01T11:40:36.783Z,30.32
2022-09-01T11:41:36.647Z,30.12
2022-09-01T11:42:36.642Z,29.83
2022-09-01T11:43:36.638Z,30.10
2022-09-01T11:44:36.637Z,29.61
2022-09-01T11:45:36.682Z,29.83
2022-09-01T11:46:36.631Z,29.14
2022-09-01T11:47:36.626Z,29.53
2022-09-01T11:48:36.622Z,29.64
2022-09-01T11:49:36.638Z,29.27
2022-09-01T11:50:36.618Z,29.66
2022-09-01T11:51:36.616Z,29.17
2022-09-01T11:52:36.611Z,29.18
2022-09-01T11:53:36.614Z,29.10
2022-09-01T11:54:36.613Z,29.21
2022-09-01T11:55:36.612Z,29.11
2022-09-01T11:56:36.601Z,28.74
2022-09-01T11:57:36.602Z,27.17
2022-09-01T11:58:36.607Z,26.46
2022-09-01T11:59:36.595Z,26.64
2022-09-01T12:00:36.621Z,27.39
2022-09-01T12:01:36.626Z,28.16
2022-09-01T12:02:37.223Z,28.63
2022-09-01T12:03:36.688Z,29.50
2022-09-01T12:04:36.576Z,29.30
2022-09-01T12:05:36.581Z,29.20
2022-09-01T12:06:36.570Z,30.06
2022-09-01T12:07:36.573Z,29.28
2022-09-01T12:08:36.585Z,28.97
2022-09-01T12:09:36.634Z,30.03
2022-09-01T12:10:36.588Z,30.71
2022-09-01T12:11:44.780Z,31.28
2022-09-01T12:13:41.069Z,31.07
2022-09-01T12:15:04.222Z,31.66
2022-09-01T12:16:45.527Z,32.40
2022-09-01T12:17:45.507Z,33.20
2022-09-01T12:19:50.004Z,32.84
2022-09-01T12:22:44.383Z,31.69
2022-09-01T12:23:44.361Z,31.90
2022-09-01T12:25:48.825Z,30.16
2022-09-01T12:26:48.805Z,30.34
2022-09-01T12:27:48.802Z,30.15
2022-09-01T12:28:48.795Z,30.42
2022-09-01T12:29:48.789Z,30.81
2022-09-01T12:30:48.785Z,30.90
2022-09-01T12:31:48.866Z,30.99
2022-09-01T12:32:48.773Z,31.38
2022-09-01T12:33:48.788Z,31.77
2022-09-01T12:34:48.763Z,31.46
2022-09-01T12:35:48.758Z,31.85
2022-09-01T12:36:48.756Z,32.15
2022-09-01T12:37:48.746Z,32.05
2022-09-01T12:38:48.743Z,32.26
2022-09-01T12:39:48.737Z,31.87
2022-09-01T12:40:48.755Z,31.59
2022-09-01T12:41:48.724Z,31.59
2022-09-01T12:42:48.722Z,31.88
2022-09-01T12:43:54.632Z,31.40
2022-09-01T12:44:49.162Z,31.48
2022-09-01T12:45:48.725Z,31.20
2022-09-01T12:46:48.700Z,30.80
2022-09-01T12:47:50.410Z,30.41
2022-09-01T12:48:49.592Z,30.70
2022-09-01T12:49:52.073Z,30.90
2022-09-01T12:50:48.679Z,31.01
2022-09-01T12:51:48.758Z,30.73
2022-09-01T12:52:48.667Z,30.44
2022-09-01T12:53:48.665Z,30.05
2022-09-01T12:54:48.661Z,29.44
2022-09-01T12:55:48.677Z,29.72
2022-09-01T12:56:48.649Z,29.63
2022-09-01T12:57:48.646Z,30.19
2022-09-01T12:58:48.640Z,30.99
2022-09-01T12:59:48.662Z,30.90
2022-09-01T13:00:48.673Z,30.70
2022-09-01T13:01:48.764Z,30.60
2022-09-01T13:02:48.760Z,30.62
2022-09-01T13:03:48.611Z,30.71
2022-09-01T13:04:48.610Z,30.41
2022-09-01T13:05:48.608Z,30.60
2022-09-01T13:06:48.735Z,30.90
2022-09-01T13:07:48.591Z,30.98
2022-09-01T13:08:48.589Z,30.88
2022-09-01T13:09:48.582Z,31.46
2022-09-01T13:10:48.577Z,31.28
2022-09-01T13:12:48.566Z,29.95
2022-09-01T13:13:48.559Z,30.15
2022-09-01T13:14:48.555Z,30.16
2022-09-01T13:15:48.549Z,29.59
2022-09-01T13:16:48.606Z,28.43
2022-09-01T13:17:48.539Z,28.53
2022-09-01T13:19:48.530Z,29.20
2022-09-01T13:20:48.527Z,29.49
2022-09-01T13:21:48.524Z,28.92
2022-09-01T13:22:48.559Z,28.92
2022-09-01T13:23:48.512Z,28.72
2022-09-01T13:24:48.780Z,29.10
2022-09-01T13:25:48.506Z,29.10
2022-09-01T13:27:20.388Z,28.99
2022-09-01T13:27:48.509Z,28.97
2022-09-01T13:28:48.489Z,29.46